sensor_id;sensor_type;location;lat;lon;timestamp;temperature;humidity
65470;DHT22;52067;50.710;14.492;2023-04-10T00:01:27;6.89;82.99
65470;DHT22;52067;50.710;14.492;2023-04-10T00:03:56;6.92;82.68
65470;DHT22;52067;50.710;14.492;2023-04-10T00:06:21;7.08;82.88
65470;DHT22;52067;50.710;14.492;2023-04-10T00:08:47;7.13;82.37
65470;DHT22;52067;50.710;14.492;2023-04-10T00:11:12;7.10;81.99
65470;DHT22;52067;50.710;14.492;2023-04-10T00:13:38;7.08;81.76
65470;DHT22;52067;50.710;14.492;2023-04-10T00:16:03;7.10;81.58
65470;DHT22;52067;50.710;14.492;2023-04-10T00:18:29;6.99;81.68
65470;DHT22;52067;50.710;14.492;2023-04-10T00:20:54;6.75;82.96
65470;DHT22;52067;50.710;14.492;2023-04-10T00:23:20;6.81;82.84
65470;DHT22;52067;50.710;14.492;2023-04-10T00:25:46;6.96;82.49
65470;DHT22;52067;50.710;14.492;2023-04-10T00:28:12;7.02;82.25
65470;DHT22;52067;50.710;14.492;2023-04-10T00:30:38;7.10;82.12
65470;DHT22;52067;50.710;14.492;2023-04-10T00:33:03;6.72;83.05
65470;DHT22;52067;50.710;14.492;2023-04-10T00:35:29;6.54;85.07
65470;DHT22;52067;50.710;14.492;2023-04-10T00:37:54;6.71;83.60
65470;DHT22;52067;50.710;14.492;2023-04-10T00:40:21;6.84;82.76
65470;DHT22;52067;50.710;14.492;2023-04-10T00:42:46;6.92;82.25
65470;DHT22;52067;50.710;14.492;2023-04-10T00:45:11;6.87;83.03
65470;DHT22;52067;50.710;14.492;2023-04-10T00:47:37;6.93;83.27
65470;DHT22;52067;50.710;14.492;2023-04-10T00:50:03;6.98;82.92
65470;DHT22;52067;50.710;14.492;2023-04-10T00:52:29;6.85;83.06
65470;DHT22;52067;50.710;14.492;2023-04-10T00:54:56;6.75;83.09
65470;DHT22;52067;50.710;14.492;2023-04-10T00:57:22;6.20;84.84
65470;DHT22;52067;50.710;14.492;2023-04-10T00:59:47;6.17;85.13
65470;DHT22;52067;50.710;14.492;2023-04-10T01:02:15;6.31;84.68
65470;DHT22;52067;50.710;14.492;2023-04-10T01:04:40;6.30;84.99
65470;DHT22;52067;50.710;14.492;2023-04-10T01:10:17;6.51;84.12
65470;DHT22;52067;50.710;14.492;2023-04-10T01:15:17;6.30;85.54
65470;DHT22;52067;50.710;14.492;2023-04-10T01:20:21;6.44;85.49
65470;DHT22;52067;50.710;14.492;2023-04-10T01:25:47;6.75;83.10
65470;DHT22;52067;50.710;14.492;2023-04-10T01:30:49;6.96;81.76
65470;DHT22;52067;50.710;14.492;2023-04-10T01:33:18;7.08;81.84
65470;DHT22;52067;50.710;14.492;2023-04-10T01:35:51;6.88;81.74
65470;DHT22;52067;50.710;14.492;2023-04-10T01:38:19;6.71;83.62
65470;DHT22;52067;50.710;14.492;2023-04-10T01:40:52;6.68;83.98
65470;DHT22;52067;50.710;14.492;2023-04-10T01:43:19;6.47;85.24
65470;DHT22;52067;50.710;14.492;2023-04-10T01:45:47;6.52;84.16
65470;DHT22;52067;50.710;14.492;2023-04-10T01:48:15;6.37;84.40
65470;DHT22;52067;50.710;14.492;2023-04-10T01:50:44;6.48;84.47
65470;DHT22;52067;50.710;14.492;2023-04-10T01:53:09;6.58;83.87
65470;DHT22;52067;50.710;14.492;2023-04-10T01:55:36;6.51;83.77
65470;DHT22;52067;50.710;14.492;2023-04-10T01:58:02;6.13;85.48
65470;DHT22;52067;50.710;14.492;2023-04-10T02:00:27;5.99;85.87
65470;DHT22;52067;50.710;14.492;2023-04-10T02:02:52;6.09;85.23
65470;DHT22;52067;50.710;14.492;2023-04-10T02:05:18;5.98;85.92
65470;DHT22;52067;50.710;14.492;2023-04-10T02:07:59;6.21;85.30
65470;DHT22;52067;50.710;14.492;2023-04-10T02:10:28;6.20;84.68
65470;DHT22;52067;50.710;14.492;2023-04-10T02:12:59;6.03;84.32
65470;DHT22;52067;50.710;14.492;2023-04-10T02:15:26;5.73;85.72
65470;DHT22;52067;50.710;14.492;2023-04-10T02:17:53;5.96;85.00
65470;DHT22;52067;50.710;14.492;2023-04-10T02:20:21;5.83;85.12
65470;DHT22;52067;50.710;14.492;2023-04-10T02:22:48;5.92;85.12
65470;DHT22;52067;50.710;14.492;2023-04-10T02:25:13;5.79;85.57
65470;DHT22;52067;50.710;14.492;2023-04-10T02:27:39;5.88;85.36
65470;DHT22;52067;50.710;14.492;2023-04-10T02:30:05;5.99;84.89
65470;DHT22;52067;50.710;14.492;2023-04-10T02:32:31;5.76;84.95
65470;DHT22;52067;50.710;14.492;2023-04-10T02:34:57;5.76;85.31
65470;DHT22;52067;50.710;14.492;2023-04-10T02:37:23;5.76;85.14
65470;DHT22;52067;50.710;14.492;2023-04-10T02:39:49;5.85;84.72
65470;DHT22;52067;50.710;14.492;2023-04-10T02:42:15;5.90;84.37
65470;DHT22;52067;50.710;14.492;2023-04-10T02:44:40;5.41;86.10
65470;DHT22;52067;50.710;14.492;2023-04-10T02:47:06;5.59;85.01
65470;DHT22;52067;50.710;14.492;2023-04-10T02:49:34;5.56;84.57
65470;DHT22;52067;50.710;14.492;2023-04-10T02:52:00;5.42;85.07
65470;DHT22;52067;50.710;14.492;2023-04-10T02:54:26;5.30;86.48
65470;DHT22;52067;50.710;14.492;2023-04-10T02:56:51;5.45;86.09
65470;DHT22;52067;50.710;14.492;2023-04-10T02:59:17;5.41;85.76
65470;DHT22;52067;50.710;14.492;2023-04-10T03:01:45;5.55;85.41
65470;DHT22;52067;50.710;14.492;2023-04-10T03:04:11;5.55;85.36
65470;DHT22;52067;50.710;14.492;2023-04-10T03:06:36;5.56;85.46
65470;DHT22;52067;50.710;14.492;2023-04-10T03:09:01;5.68;84.95
65470;DHT22;52067;50.710;14.492;2023-04-10T03:11:27;5.63;85.17
65470;DHT22;52067;50.710;14.492;2023-04-10T03:13:52;5.20;87.19
65470;DHT22;52067;50.710;14.492;2023-04-10T03:16:18;5.41;86.49
65470;DHT22;52067;50.710;14.492;2023-04-10T03:18:44;5.10;87.44
65470;DHT22;52067;50.710;14.492;2023-04-10T03:21:10;5.13;87.96
65470;DHT22;52067;50.710;14.492;2023-04-10T03:23:35;5.28;86.96
65470;DHT22;52067;50.710;14.492;2023-04-10T03:26:01;5.03;88.15
65470;DHT22;52067;50.710;14.492;2023-04-10T03:28:26;5.10;88.25
65470;DHT22;52067;50.710;14.492;2023-04-10T03:30:52;5.03;88.12
65470;DHT22;52067;50.710;14.492;2023-04-10T03:33:17;4.96;88.49
65470;DHT22;52067;50.710;14.492;2023-04-10T03:35:44;5.27;88.09
65470;DHT22;52067;50.710;14.492;2023-04-10T03:38:10;5.51;86.98
65470;DHT22;52067;50.710;14.492;2023-04-10T03:40:35;5.50;86.51
65470;DHT22;52067;50.710;14.492;2023-04-10T03:43:01;5.50;86.79
65470;DHT22;52067;50.710;14.492;2023-04-10T03:45:27;5.66;86.47
65470;DHT22;52067;50.710;14.492;2023-04-10T03:47:52;5.50;86.56
65470;DHT22;52067;50.710;14.492;2023-04-10T03:50:18;5.03;87.41
65470;DHT22;52067;50.710;14.492;2023-04-10T03:52:43;4.84;88.56
65470;DHT22;52067;50.710;14.492;2023-04-10T03:55:09;4.92;88.39
65470;DHT22;52067;50.710;14.492;2023-04-10T03:57:34;4.97;87.57
65470;DHT22;52067;50.710;14.492;2023-04-10T03:59:59;4.97;87.59
65470;DHT22;52067;50.710;14.492;2023-04-10T04:02:25;4.99;87.03
65470;DHT22;52067;50.710;14.492;2023-04-10T04:04:51;5.06;86.81
65470;DHT22;52067;50.710;14.492;2023-04-10T04:07:16;5.01;86.34
65470;DHT22;52067;50.710;14.492;2023-04-10T04:09:41;4.93;86.24
65470;DHT22;52067;50.710;14.492;2023-04-10T04:12:07;4.75;86.65
65470;DHT22;52067;50.710;14.492;2023-04-10T04:14:32;4.71;86.39
65470;DHT22;52067;50.710;14.492;2023-04-10T04:16:58;4.72;86.23
65470;DHT22;52067;50.710;14.492;2023-04-10T04:19:23;4.37;87.59
65470;DHT22;52067;50.710;14.492;2023-04-10T04:21:49;4.18;88.43
65470;DHT22;52067;50.710;14.492;2023-04-10T04:24:15;4.14;88.67
65470;DHT22;52067;50.710;14.492;2023-04-10T04:26:40;4.35;87.93
65470;DHT22;52067;50.710;14.492;2023-04-10T04:29:06;4.48;87.35
65470;DHT22;52067;50.710;14.492;2023-04-10T04:31:31;4.58;87.01
65470;DHT22;52067;50.710;14.492;2023-04-10T04:34:00;4.66;86.62
65470;DHT22;52067;50.710;14.492;2023-04-10T04:36:28;4.58;87.24
65470;DHT22;52067;50.710;14.492;2023-04-10T04:38:53;4.73;87.04
65470;DHT22;52067;50.710;14.492;2023-04-10T04:41:19;4.87;86.56
65470;DHT22;52067;50.710;14.492;2023-04-10T04:43:44;4.75;87.05
65470;DHT22;52067;50.710;14.492;2023-04-10T04:46:11;4.83;87.21
65470;DHT22;52067;50.710;14.492;2023-04-10T04:48:37;4.99;87.01
65470;DHT22;52067;50.710;14.492;2023-04-10T04:51:02;5.04;86.36
65470;DHT22;52067;50.710;14.492;2023-04-10T04:53:28;4.93;86.59
65470;DHT22;52067;50.710;14.492;2023-04-10T04:55:53;5.04;86.95
65470;DHT22;52067;50.710;14.492;2023-04-10T04:58:18;5.17;86.31
65470;DHT22;52067;50.710;14.492;2023-04-10T05:00:45;5.06;87.11
65470;DHT22;52067;50.710;14.492;2023-04-10T05:03:10;4.94;87.80
65470;DHT22;52067;50.710;14.492;2023-04-10T05:05:36;5.17;87.57
65470;DHT22;52067;50.710;14.492;2023-04-10T05:08:01;5.41;86.78
65470;DHT22;52067;50.710;14.492;2023-04-10T05:10:27;5.50;86.57
65470;DHT22;52067;50.710;14.492;2023-04-10T05:12:52;5.24;87.06
65470;DHT22;52067;50.710;14.492;2023-04-10T05:15:18;5.24;87.10
65470;DHT22;52067;50.710;14.492;2023-04-10T05:17:43;5.34;87.02
65470;DHT22;52067;50.710;14.492;2023-04-10T05:20:09;5.52;86.65
65470;DHT22;52067;50.710;14.492;2023-04-10T05:22:35;5.63;86.84
65470;DHT22;52067;50.710;14.492;2023-04-10T05:25:00;5.42;86.45
65470;DHT22;52067;50.710;14.492;2023-04-10T05:27:25;5.73;85.84
65470;DHT22;52067;50.710;14.492;2023-04-10T05:29:51;6.05;84.91
65470;DHT22;52067;50.710;14.492;2023-04-10T05:32:16;6.17;84.23
65470;DHT22;52067;50.710;14.492;2023-04-10T05:34:42;6.38;83.82
65470;DHT22;52067;50.710;14.492;2023-04-10T05:37:07;6.54;83.72
65470;DHT22;52067;50.710;14.492;2023-04-10T05:39:33;6.40;84.32
65470;DHT22;52067;50.710;14.492;2023-04-10T05:41:58;6.63;84.62
65470;DHT22;52067;50.710;14.492;2023-04-10T05:44:24;6.45;84.75
65470;DHT22;52067;50.710;14.492;2023-04-10T05:46:49;6.57;85.07
65470;DHT22;52067;50.710;14.492;2023-04-10T05:49:15;6.79;83.92
65470;DHT22;52067;50.710;14.492;2023-04-10T05:51:41;6.60;84.48
65470;DHT22;52067;50.710;14.492;2023-04-10T05:54:06;6.63;84.53
65470;DHT22;52067;50.710;14.492;2023-04-10T05:56:32;6.63;84.56
65470;DHT22;52067;50.710;14.492;2023-04-10T05:58:57;6.61;85.33
65470;DHT22;52067;50.710;14.492;2023-04-10T06:01:22;6.50;84.36
65470;DHT22;52067;50.710;14.492;2023-04-10T06:03:48;6.69;83.86
65470;DHT22;52067;50.710;14.492;2023-04-10T06:06:13;6.96;83.43
65470;DHT22;52067;50.710;14.492;2023-04-10T06:08:38;7.19;83.16
65470;DHT22;52067;50.710;14.492;2023-04-10T06:11:04;7.26;82.55
65470;DHT22;52067;50.710;14.492;2023-04-10T06:13:30;7.29;82.25
65470;DHT22;52067;50.710;14.492;2023-04-10T06:15:56;6.93;83.07
65470;DHT22;52067;50.710;14.492;2023-04-10T06:18:22;6.87;84.11
65470;DHT22;52067;50.710;14.492;2023-04-10T06:20:48;7.15;83.99
65470;DHT22;52067;50.710;14.492;2023-04-10T06:23:14;7.37;83.81
65470;DHT22;52067;50.710;14.492;2023-04-10T06:25:39;7.29;83.80
65470;DHT22;52067;50.710;14.492;2023-04-10T06:28:05;7.20;83.58
65470;DHT22;52067;50.710;14.492;2023-04-10T06:30:31;7.51;82.29
65470;DHT22;52067;50.710;14.492;2023-04-10T06:32:58;7.67;82.21
65470;DHT22;52067;50.710;14.492;2023-04-10T06:35:24;7.54;82.69
65470;DHT22;52067;50.710;14.492;2023-04-10T06:37:49;7.98;82.19
65470;DHT22;52067;50.710;14.492;2023-04-10T06:40:15;8.32;81.00
65470;DHT22;52067;50.710;14.492;2023-04-10T06:42:40;8.32;79.70
65470;DHT22;52067;50.710;14.492;2023-04-10T06:45:06;8.45;79.71
65470;DHT22;52067;50.710;14.492;2023-04-10T06:47:32;8.59;79.64
65470;DHT22;52067;50.710;14.492;2023-04-10T06:49:57;8.83;79.14
65470;DHT22;52067;50.710;14.492;2023-04-10T06:52:23;8.91;78.31
65470;DHT22;52067;50.710;14.492;2023-04-10T06:54:48;8.71;78.29
65470;DHT22;52067;50.710;14.492;2023-04-10T06:57:14;8.74;77.20
65470;DHT22;52067;50.710;14.492;2023-04-10T06:59:40;8.57;78.18
65470;DHT22;52067;50.710;14.492;2023-04-10T07:02:06;8.56;78.66
65470;DHT22;52067;50.710;14.492;2023-04-10T07:04:31;8.40;78.41
65470;DHT22;52067;50.710;14.492;2023-04-10T07:06:57;8.49;78.46
65470;DHT22;52067;50.710;14.492;2023-04-10T07:09:25;8.60;78.67
65470;DHT22;52067;50.710;14.492;2023-04-10T07:11:50;8.78;79.06
65470;DHT22;52067;50.710;14.492;2023-04-10T07:14:16;8.46;78.87
65470;DHT22;52067;50.710;14.492;2023-04-10T07:16:42;8.91;77.72
65470;DHT22;52067;50.710;14.492;2023-04-10T07:19:07;8.83;77.56
65470;DHT22;52067;50.710;14.492;2023-04-10T07:21:32;9.05;76.93
65470;DHT22;52067;50.710;14.492;2023-04-10T07:23:58;9.04;77.60
65470;DHT22;52067;50.710;14.492;2023-04-10T07:26:24;9.05;76.07
65470;DHT22;52067;50.710;14.492;2023-04-10T07:28:50;8.89;76.54
65470;DHT22;52067;50.710;14.492;2023-04-10T07:31:15;9.08;76.89
65470;DHT22;52067;50.710;14.492;2023-04-10T07:33:43;9.14;77.93
65470;DHT22;52067;50.710;14.492;2023-04-10T07:36:08;9.31;75.66
65470;DHT22;52067;50.710;14.492;2023-04-10T07:38:34;9.28;75.58
65470;DHT22;52067;50.710;14.492;2023-04-10T07:40:59;9.50;75.57
65470;DHT22;52067;50.710;14.492;2023-04-10T07:43:25;9.63;75.61
65470;DHT22;52067;50.710;14.492;2023-04-10T07:45:51;9.50;74.70
65470;DHT22;52067;50.710;14.492;2023-04-10T07:48:17;9.77;75.52
65470;DHT22;52067;50.710;14.492;2023-04-10T07:50:42;9.95;73.71
65470;DHT22;52067;50.710;14.492;2023-04-10T07:53:07;9.50;73.38
65470;DHT22;52067;50.710;14.492;2023-04-10T07:55:41;9.91;72.58
65470;DHT22;52067;50.710;14.492;2023-04-10T07:58:06;9.84;74.99
65470;DHT22;52067;50.710;14.492;2023-04-10T08:00:32;10.15;75.34
65470;DHT22;52067;50.710;14.492;2023-04-10T08:02:58;10.35;73.99
65470;DHT22;52067;50.710;14.492;2023-04-10T08:05:23;10.42;72.80
65470;DHT22;52067;50.710;14.492;2023-04-10T08:07:49;10.35;71.18
65470;DHT22;52067;50.710;14.492;2023-04-10T08:10:14;10.49;73.28
65470;DHT22;52067;50.710;14.492;2023-04-10T08:12:39;10.77;71.41
65470;DHT22;52067;50.710;14.492;2023-04-10T08:15:05;10.71;73.47
65470;DHT22;52067;50.710;14.492;2023-04-10T08:17:31;10.93;71.14
65470;DHT22;52067;50.710;14.492;2023-04-10T08:19:56;10.89;70.58
65470;DHT22;52067;50.710;14.492;2023-04-10T08:22:21;11.01;73.02
65470;DHT22;52067;50.710;14.492;2023-04-10T08:24:47;10.92;68.86
65470;DHT22;52067;50.710;14.492;2023-04-10T08:27:12;11.03;69.61
65470;DHT22;52067;50.710;14.492;2023-04-10T08:29:40;11.01;69.08
65470;DHT22;52067;50.710;14.492;2023-04-10T08:32:05;11.26;70.95
65470;DHT22;52067;50.710;14.492;2023-04-10T08:34:30;11.27;69.31
65470;DHT22;52067;50.710;14.492;2023-04-10T08:36:56;11.41;67.72
65470;DHT22;52067;50.710;14.492;2023-04-10T08:39:21;11.50;67.11
65470;DHT22;52067;50.710;14.492;2023-04-10T08:41:47;11.47;66.58
65470;DHT22;52067;50.710;14.492;2023-04-10T08:44:12;11.86;66.00
65470;DHT22;52067;50.710;14.492;2023-04-10T08:46:41;12.10;66.18
65470;DHT22;52067;50.710;14.492;2023-04-10T08:49:09;12.02;67.82
65470;DHT22;52067;50.710;14.492;2023-04-10T08:51:57;12.20;65.72
65470;DHT22;52067;50.710;14.492;2023-04-10T08:54:32;12.47;65.60
65470;DHT22;52067;50.710;14.492;2023-04-10T08:56:58;12.47;64.76
65470;DHT22;52067;50.710;14.492;2023-04-10T08:59:27;12.30;63.10
65470;DHT22;52067;50.710;14.492;2023-04-10T09:01:55;12.68;64.58
65470;DHT22;52067;50.710;14.492;2023-04-10T09:04:22;12.94;63.91
65470;DHT22;52067;50.710;14.492;2023-04-10T09:06:48;13.30;61.65
65470;DHT22;52067;50.710;14.492;2023-04-10T09:09:13;12.89;61.89
65470;DHT22;52067;50.710;14.492;2023-04-10T09:14:26;12.51;59.38
65470;DHT22;52067;50.710;14.492;2023-04-10T09:16:53;12.48;60.40
65470;DHT22;52067;50.710;14.492;2023-04-10T09:19:34;13.04;61.30
65470;DHT22;52067;50.710;14.492;2023-04-10T09:21:59;12.84;61.12
65470;DHT22;52067;50.710;14.492;2023-04-10T09:24:25;13.09;57.50
65470;DHT22;52067;50.710;14.492;2023-04-10T09:26:51;13.20;57.22
65470;DHT22;52067;50.710;14.492;2023-04-10T09:29:16;13.46;57.33
65470;DHT22;52067;50.710;14.492;2023-04-10T09:31:42;13.77;57.95
65470;DHT22;52067;50.710;14.492;2023-04-10T09:34:11;14.21;58.72
65470;DHT22;52067;50.710;14.492;2023-04-10T09:36:38;14.59;54.67
65470;DHT22;52067;50.710;14.492;2023-04-10T09:39:05;14.79;55.99
65470;DHT22;52067;50.710;14.492;2023-04-10T09:41:30;14.79;55.69
65470;DHT22;52067;50.710;14.492;2023-04-10T09:44:11;14.45;52.34
65470;DHT22;52067;50.710;14.492;2023-04-10T09:46:37;14.80;52.71
65470;DHT22;52067;50.710;14.492;2023-04-10T09:49:02;14.83;53.16
65470;DHT22;52067;50.710;14.492;2023-04-10T09:51:33;15.08;51.28
65470;DHT22;52067;50.710;14.492;2023-04-10T09:53:59;14.04;53.58
65470;DHT22;52067;50.710;14.492;2023-04-10T09:56:25;13.81;54.36
65470;DHT22;52067;50.710;14.492;2023-04-10T09:58:58;14.65;55.07
65470;DHT22;52067;50.710;14.492;2023-04-10T10:01:27;15.39;52.61
65470;DHT22;52067;50.710;14.492;2023-04-10T10:04:00;15.95;52.02
65470;DHT22;52067;50.710;14.492;2023-04-10T10:06:26;16.51;48.17
65470;DHT22;52067;50.710;14.492;2023-04-10T10:08:52;16.78;49.40
65470;DHT22;52067;50.710;14.492;2023-04-10T10:11:20;17.60;46.24
65470;DHT22;52067;50.710;14.492;2023-04-10T10:13:49;15.70;49.16
65470;DHT22;52067;50.710;14.492;2023-04-10T10:16:20;17.32;47.31
65470;DHT22;52067;50.710;14.492;2023-04-10T10:19:05;18.00;44.47
65470;DHT22;52067;50.710;14.492;2023-04-10T10:21:33;18.61;43.02
65470;DHT22;52067;50.710;14.492;2023-04-10T10:24:01;19.63;39.73
65470;DHT22;52067;50.710;14.492;2023-04-10T10:26:31;18.57;43.00
65470;DHT22;52067;50.710;14.492;2023-04-10T10:29:02;21.49;37.44
65470;DHT22;52067;50.710;14.492;2023-04-10T10:31:28;22.46;36.21
65470;DHT22;52067;50.710;14.492;2023-04-10T10:33:59;21.22;39.14
65470;DHT22;52067;50.710;14.492;2023-04-10T10:36:29;20.86;35.13
65470;DHT22;52067;50.710;14.492;2023-04-10T10:42:07;22.64;34.74
65470;DHT22;52067;50.710;14.492;2023-04-10T10:45:20;22.60;35.23
65470;DHT22;52067;50.710;14.492;2023-04-10T10:47:53;19.87;37.04
65470;DHT22;52067;50.710;14.492;2023-04-10T10:50:19;20.41;36.17
65470;DHT22;52067;50.710;14.492;2023-04-10T10:52:51;20.76;38.12
65470;DHT22;52067;50.710;14.492;2023-04-10T10:57:54;20.37;36.18
65470;DHT22;52067;50.710;14.492;2023-04-10T11:00:23;22.15;35.44
65470;DHT22;52067;50.710;14.492;2023-04-10T11:05:54;19.38;39.47
65470;DHT22;52067;50.710;14.492;2023-04-10T11:11:01;18.39;41.07
65470;DHT22;52067;50.710;14.492;2023-04-10T11:13:27;18.06;41.47
65470;DHT22;52067;50.710;14.492;2023-04-10T11:15:54;17.74;42.27
65470;DHT22;52067;50.710;14.492;2023-04-10T11:28:57;20.78;37.97
65470;DHT22;52067;50.710;14.492;2023-04-10T11:31:23;22.22;34.04
65470;DHT22;52067;50.710;14.492;2023-04-10T11:34:00;22.86;36.75
65470;DHT22;52067;50.710;14.492;2023-04-10T11:36:26;22.40;32.82
65470;DHT22;52067;50.710;14.492;2023-04-10T11:39:08;21.22;36.57
65470;DHT22;52067;50.710;14.492;2023-04-10T11:41:35;21.94;36.30
65470;DHT22;52067;50.710;14.492;2023-04-10T11:44:06;21.88;33.99
65470;DHT22;52067;50.710;14.492;2023-04-10T11:46:35;22.45;32.98
65470;DHT22;52067;50.710;14.492;2023-04-10T11:49:03;21.12;34.85
65470;DHT22;52067;50.710;14.492;2023-04-10T11:51:29;18.08;41.19
65470;DHT22;52067;50.710;14.492;2023-04-10T11:54:09;17.11;43.25
65470;DHT22;52067;50.710;14.492;2023-04-10T11:56:35;18.04;42.12
65470;DHT22;52067;50.710;14.492;2023-04-10T11:59:01;18.66;42.71
65470;DHT22;52067;50.710;14.492;2023-04-10T12:01:31;18.77;40.70
65470;DHT22;52067;50.710;14.492;2023-04-10T12:03:57;18.74;40.75
65470;DHT22;52067;50.710;14.492;2023-04-10T12:06:23;21.12;38.45
65470;DHT22;52067;50.710;14.492;2023-04-10T12:08:48;19.86;40.77
65470;DHT22;52067;50.710;14.492;2023-04-10T12:11:22;20.69;38.41
65470;DHT22;52067;50.710;14.492;2023-04-10T12:13:56;20.98;38.35
65470;DHT22;52067;50.710;14.492;2023-04-10T12:16:23;18.96;40.63
65470;DHT22;52067;50.710;14.492;2023-04-10T12:18:49;18.90;41.54
65470;DHT22;52067;50.710;14.492;2023-04-10T12:21:15;17.64;43.78
65470;DHT22;52067;50.710;14.492;2023-04-10T12:23:41;18.86;41.96
65470;DHT22;52067;50.710;14.492;2023-04-10T12:26:16;21.03;39.35
65470;DHT22;52067;50.710;14.492;2023-04-10T12:28:56;17.43;41.87
65470;DHT22;52067;50.710;14.492;2023-04-10T12:31:29;17.54;41.08
65470;DHT22;52067;50.710;14.492;2023-04-10T12:33:55;17.05;40.69
65470;DHT22;52067;50.710;14.492;2023-04-10T12:36:26;17.30;44.02
65470;DHT22;52067;50.710;14.492;2023-04-10T12:39:22;19.04;38.53
65470;DHT22;52067;50.710;14.492;2023-04-10T12:41:47;19.85;37.76
65470;DHT22;52067;50.710;14.492;2023-04-10T12:44:13;20.12;36.98
65470;DHT22;52067;50.710;14.492;2023-04-10T12:46:39;19.58;39.41
65470;DHT22;52067;50.710;14.492;2023-04-10T12:49:15;21.74;34.23
65470;DHT22;52067;50.710;14.492;2023-04-10T12:51:46;20.76;35.14
65470;DHT22;52067;50.710;14.492;2023-04-10T12:54:26;20.33;36.02
65470;DHT22;52067;50.710;14.492;2023-04-10T12:56:52;19.90;40.39
65470;DHT22;52067;50.710;14.492;2023-04-10T12:59:18;21.26;33.62
65470;DHT22;52067;50.710;14.492;2023-04-10T13:01:43;21.16;34.40
65470;DHT22;52067;50.710;14.492;2023-04-10T13:04:08;21.36;35.73
65470;DHT22;52067;50.710;14.492;2023-04-10T13:06:44;20.09;36.29
65470;DHT22;52067;50.710;14.492;2023-04-10T13:09:11;19.96;37.19
65470;DHT22;52067;50.710;14.492;2023-04-10T13:11:36;20.67;36.51
65470;DHT22;52067;50.710;14.492;2023-04-10T13:14:04;20.40;36.52
65470;DHT22;52067;50.710;14.492;2023-04-10T13:16:30;20.82;35.41
65470;DHT22;52067;50.710;14.492;2023-04-10T13:18:55;21.10;35.85
65470;DHT22;52067;50.710;14.492;2023-04-10T13:21:21;19.12;37.20
65470;DHT22;52067;50.710;14.492;2023-04-10T13:23:55;18.90;36.90
65470;DHT22;52067;50.710;14.492;2023-04-10T13:26:21;18.48;36.48
65470;DHT22;52067;50.710;14.492;2023-04-10T13:28:47;18.11;41.41
65470;DHT22;52067;50.710;14.492;2023-04-10T13:31:13;19.76;37.39
65470;DHT22;52067;50.710;14.492;2023-04-10T13:33:44;21.34;35.43
65470;DHT22;52067;50.710;14.492;2023-04-10T13:36:11;23.14;34.25
65470;DHT22;52067;50.710;14.492;2023-04-10T13:38:36;20.17;36.45
65470;DHT22;52067;50.710;14.492;2023-04-10T13:41:02;20.89;32.83
65470;DHT22;52067;50.710;14.492;2023-04-10T13:43:27;20.69;32.06
65470;DHT22;52067;50.710;14.492;2023-04-10T13:45:52;19.03;37.54
65470;DHT22;52067;50.710;14.492;2023-04-10T13:48:18;17.82;38.56
65470;DHT22;52067;50.710;14.492;2023-04-10T13:50:45;17.26;40.65
65470;DHT22;52067;50.710;14.492;2023-04-10T13:53:10;17.97;39.12
65470;DHT22;52067;50.710;14.492;2023-04-10T13:55:36;17.06;42.22
65470;DHT22;52067;50.710;14.492;2023-04-10T13:58:02;17.36;39.71
65470;DHT22;52067;50.710;14.492;2023-04-10T14:00:27;19.68;35.05
65470;DHT22;52067;50.710;14.492;2023-04-10T14:02:52;20.30;35.29
65470;DHT22;52067;50.710;14.492;2023-04-10T14:05:18;20.69;32.09
65470;DHT22;52067;50.710;14.492;2023-04-10T14:07:43;20.20;31.93
65470;DHT22;52067;50.710;14.492;2023-04-10T14:10:09;19.73;32.30
65470;DHT22;52067;50.710;14.492;2023-04-10T14:12:34;20.63;30.26
65470;DHT22;52067;50.710;14.492;2023-04-10T14:15:00;20.30;31.85
65470;DHT22;52067;50.710;14.492;2023-04-10T14:17:25;18.60;35.15
65470;DHT22;52067;50.710;14.492;2023-04-10T14:19:52;19.45;33.45
65470;DHT22;52067;50.710;14.492;2023-04-10T14:22:18;19.85;33.12
65470;DHT22;52067;50.710;14.492;2023-04-10T14:24:44;17.88;37.76
65470;DHT22;52067;50.710;14.492;2023-04-10T14:27:09;17.18;38.74
65470;DHT22;52067;50.710;14.492;2023-04-10T14:29:34;17.05;38.74
65470;DHT22;52067;50.710;14.492;2023-04-10T14:32:00;16.21;38.47
65470;DHT22;52067;50.710;14.492;2023-04-10T14:34:25;18.32;34.69
65470;DHT22;52067;50.710;14.492;2023-04-10T14:36:51;19.63;34.44
65470;DHT22;52067;50.710;14.492;2023-04-10T14:39:23;20.69;31.71
65470;DHT22;52067;50.710;14.492;2023-04-10T14:41:49;19.63;33.87
65470;DHT22;52067;50.710;14.492;2023-04-10T14:44:15;17.82;36.62
65470;DHT22;52067;50.710;14.492;2023-04-10T14:46:40;16.05;40.27
65470;DHT22;52067;50.710;14.492;2023-04-10T14:49:05;16.26;40.86
65470;DHT22;52067;50.710;14.492;2023-04-10T14:51:31;17.06;38.51
65470;DHT22;52067;50.710;14.492;2023-04-10T14:53:57;18.60;37.04
65470;DHT22;52067;50.710;14.492;2023-04-10T14:56:23;20.41;32.62
65470;DHT22;52067;50.710;14.492;2023-04-10T14:58:48;19.28;31.05
65470;DHT22;52067;50.710;14.492;2023-04-10T15:01:14;19.47;34.07
65470;DHT22;52067;50.710;14.492;2023-04-10T15:03:40;19.25;34.43
65470;DHT22;52067;50.710;14.492;2023-04-10T15:06:06;18.55;35.13
65470;DHT22;52067;50.710;14.492;2023-04-10T15:08:31;18.11;34.81
65470;DHT22;52067;50.710;14.492;2023-04-10T15:10:56;19.70;32.42
65470;DHT22;52067;50.710;14.492;2023-04-10T15:13:22;20.14;33.21
65470;DHT22;52067;50.710;14.492;2023-04-10T15:15:47;20.69;31.70
65470;DHT22;52067;50.710;14.492;2023-04-10T15:18:14;19.24;35.40
65470;DHT22;52067;50.710;14.492;2023-04-10T15:20:40;18.31;35.97
65470;DHT22;52067;50.710;14.492;2023-04-10T15:23:05;17.61;36.96
65470;DHT22;52067;50.710;14.492;2023-04-10T15:25:32;18.35;35.42
65470;DHT22;52067;50.710;14.492;2023-04-10T15:27:57;17.64;36.84
65470;DHT22;52067;50.710;14.492;2023-04-10T15:30:22;17.84;38.34
65470;DHT22;52067;50.710;14.492;2023-04-10T15:32:48;17.90;37.47
65470;DHT22;52067;50.710;14.492;2023-04-10T15:35:13;17.29;39.75
65470;DHT22;52067;50.710;14.492;2023-04-10T15:37:39;16.48;39.88
65470;DHT22;52067;50.710;14.492;2023-04-10T15:40:04;17.27;39.45
65470;DHT22;52067;50.710;14.492;2023-04-10T15:42:31;16.51;40.54
65470;DHT22;52067;50.710;14.492;2023-04-10T15:44:56;16.02;39.52
65470;DHT22;52067;50.710;14.492;2023-04-10T15:47:22;15.24;43.10
65470;DHT22;52067;50.710;14.492;2023-04-10T15:49:47;14.96;42.99
65470;DHT22;52067;50.710;14.492;2023-04-10T15:52:13;14.56;45.94
65470;DHT22;52067;50.710;14.492;2023-04-10T15:54:38;15.08;45.89
65470;DHT22;52067;50.710;14.492;2023-04-10T15:57:04;15.04;44.23
65470;DHT22;52067;50.710;14.492;2023-04-10T15:59:30;15.52;45.61